createdAt,value
2023-11-12T00:03:37.441Z,100.00
2023-11-12T00:08:39.696Z,100.00
2023-11-12T00:13:42.956Z,100.00
2023-11-12T00:18:45.752Z,100.00
2023-11-12T00:23:48.787Z,100.00
2023-11-12T00:28:52.304Z,100.00
2023-11-12T00:33:55.144Z,100.00
2023-11-12T00:38:58.187Z,100.00
2023-11-12T00:44:00.944Z,100.00
2023-11-12T00:49:04.046Z,100.00
2023-11-12T00:54:07.329Z,100.00
2023-11-12T00:59:09.659Z,100.00
2023-11-12T01:04:12.660Z,100.00
2023-11-12T01:09:15.468Z,100.00
2023-11-12T01:14:18.346Z,100.00
2023-11-12T01:19:21.050Z,100.00
2023-11-12T01:24:23.385Z,100.00
2023-11-12T01:29:26.444Z,100.00
2023-11-12T01:34:29.134Z,100.00
2023-11-12T01:39:32.225Z,100.00
2023-11-12T01:44:34.501Z,100.00
2023-11-12T01:49:39.364Z,100.00
2023-11-12T01:54:42.908Z,100.00
2023-11-12T01:59:46.434Z,100.00
2023-11-12T02:04:50.483Z,100.00
2023-11-12T02:10:00.450Z,100.00
2023-11-12T02:15:04.565Z,100.00
2023-11-12T02:20:12.197Z,100.00
2023-11-12T02:25:15.242Z,100.00
2023-11-12T02:30:20.541Z,100.00
2023-11-12T02:35:23.287Z,100.00
2023-11-12T02:40:26.266Z,100.00
2023-11-12T02:45:29.322Z,100.00
2023-11-12T02:50:33.064Z,100.00
2023-11-12T02:55:36.844Z,100.00
2023-11-12T03:00:39.666Z,100.00
2023-11-12T03:05:42.495Z,100.00
2023-11-12T03:10:45.303Z,100.00
2023-11-12T03:15:48.182Z,100.00
2023-11-12T03:20:54.363Z,100.00
2023-11-12T03:25:58.696Z,100.00
2023-11-12T03:31:01.116Z,100.00
2023-11-12T03:36:05.618Z,100.00
2023-11-12T03:41:08.053Z,100.00
2023-11-12T03:46:11.225Z,100.00
2023-11-12T03:51:13.907Z,100.00
2023-11-12T03:56:16.518Z,100.00
2023-11-12T04:01:19.322Z,100.00
2023-11-12T04:06:21.928Z,100.00
2023-11-12T04:11:25.700Z,100.00
2023-11-12T04:16:28.352Z,100.00
2023-11-12T04:21:32.001Z,100.00
2023-11-12T04:26:34.855Z,100.00
2023-11-12T04:31:40.988Z,100.00
2023-11-12T04:36:45.680Z,100.00
2023-11-12T04:41:48.315Z,100.00
2023-11-12T04:46:51.063Z,100.00
2023-11-12T04:51:53.351Z,100.00
2023-11-12T04:56:56.305Z,100.00
2023-11-12T05:01:59.551Z,100.00
2023-11-12T05:07:02.288Z,100.00
2023-11-12T05:12:05.569Z,100.00
2023-11-12T05:17:08.096Z,100.00
2023-11-12T05:22:10.943Z,100.00
2023-11-12T05:27:13.761Z,100.00
2023-11-12T05:32:16.791Z,100.00
2023-11-12T05:37:19.437Z,100.00
2023-11-12T05:42:22.117Z,100.00
2023-11-12T05:47:25.298Z,100.00
2023-11-12T05:52:27.903Z,100.00
2023-11-12T05:57:30.658Z,100.00
2023-11-12T06:02:33.860Z,100.00
2023-11-12T06:07:36.830Z,100.00
2023-11-12T06:19:26.607Z,100.00
2023-11-12T06:24:29.595Z,100.00
2023-11-12T06:29:32.971Z,100.00
2023-11-12T06:34:36.443Z,100.00
2023-11-12T06:39:38.760Z,100.00
2023-11-12T06:44:41.764Z,100.00
2023-11-12T06:49:45.029Z,100.00
2023-11-12T06:54:47.943Z,100.00
2023-11-12T06:59:50.284Z,100.00
2023-11-12T07:04:52.990Z,100.00
2023-11-12T07:09:55.764Z,100.00
2023-11-12T07:14:58.644Z,100.00
2023-11-12T07:20:01.464Z,100.00
2023-11-12T07:25:05.364Z,100.00
2023-11-12T07:30:08.918Z,100.00
2023-11-12T07:35:14.520Z,100.00
2023-11-12T07:40:19.310Z,100.00
2023-11-12T07:45:25.741Z,100.00
2023-11-12T07:50:34.534Z,100.00
2023-11-12T07:55:36.856Z,100.00
2023-11-12T08:00:39.746Z,100.00
2023-11-12T08:05:42.484Z,100.00
2023-11-12T08:10:45.433Z,100.00
2023-11-12T08:15:48.232Z,100.00
2023-11-12T08:20:51.037Z,100.00
2023-11-12T08:25:54.690Z,100.00
2023-11-12T08:30:57.407Z,100.00
2023-11-12T08:35:59.723Z,100.00
2023-11-12T08:41:02.715Z,100.00
2023-11-12T08:46:05.512Z,100.00
2023-11-12T08:51:10.257Z,100.00
2023-11-12T08:56:13.831Z,100.00
2023-11-12T09:01:43.270Z,100.00
2023-11-12T09:06:45.694Z,97.18
2023-11-12T09:11:49.570Z,62.92
2023-11-12T09:16:52.274Z,60.93
2023-11-12T09:21:54.864Z,51.80
2023-11-12T09:26:57.783Z,47.73
2023-11-12T09:32:00.809Z,46.19
2023-11-12T09:37:05.609Z,42.14
2023-11-12T09:42:13.588Z,40.91
2023-11-12T09:47:33.945Z,42.52
2023-11-12T09:52:36.942Z,44.74
2023-11-12T09:57:40.181Z,46.49
2023-11-12T10:02:43.191Z,48.26
2023-11-12T10:07:46.293Z,49.00
2023-11-12T10:12:49.955Z,49.31
2023-11-12T10:17:59.527Z,49.67
2023-11-12T10:23:05.369Z,50.13
2023-11-12T10:28:10.472Z,50.72
2023-11-12T10:33:30.285Z,51.17
2023-11-12T10:38:53.693Z,51.34
2023-11-12T10:44:00.114Z,53.43
2023-11-12T10:49:05.486Z,55.41
2023-11-12T10:54:10.398Z,56.86
2023-11-12T10:59:16.364Z,57.18
2023-11-12T11:04:21.558Z,55.32
2023-11-12T11:09:25.061Z,54.97
2023-11-12T11:14:32.585Z,56.14
2023-11-12T11:19:44.678Z,56.05
2023-11-12T11:24:47.870Z,54.62
2023-11-12T11:30:10.964Z,54.70
2023-11-12T11:35:19.570Z,58.19
2023-11-12T11:40:32.866Z,56.22
2023-11-12T11:46:11.903Z,54.22
2023-11-12T11:51:40.329Z,54.21
2023-11-12T11:56:43.553Z,55.14
2023-11-12T12:01:49.718Z,56.14
2023-11-12T12:06:53.323Z,57.05
2023-11-12T12:12:07.241Z,56.69
2023-11-12T12:17:12.308Z,57.01
2023-11-12T12:22:32.782Z,55.54
2023-11-12T12:27:37.969Z,56.17
2023-11-12T12:32:40.857Z,57.79
2023-11-12T12:37:43.565Z,58.52
2023-11-12T12:42:46.510Z,57.09
2023-11-12T12:47:49.470Z,58.09
2023-11-12T12:52:53.283Z,59.84
2023-11-12T12:58:00.332Z,61.43
2023-11-12T13:03:04.107Z,61.56
2023-11-12T13:08:09.499Z,64.14
2023-11-12T13:13:13.287Z,63.91
2023-11-12T13:18:16.575Z,65.77
2023-11-12T13:23:23.861Z,69.00
2023-11-12T13:28:26.907Z,67.48
2023-11-12T13:33:29.703Z,67.97
2023-11-12T13:38:35.019Z,66.30
2023-11-12T13:43:39.030Z,73.52
2023-11-12T13:48:41.682Z,71.00
2023-11-12T13:53:44.410Z,72.38
2023-11-12T13:58:52.130Z,75.37
2023-11-12T14:03:54.566Z,94.03
2023-11-12T14:08:57.572Z,85.57
2023-11-12T14:14:00.242Z,96.62
2023-11-12T14:19:03.109Z,87.37
2023-11-12T14:24:07.421Z,99.18
2023-11-12T14:29:12.366Z,99.83
2023-11-12T14:34:16.428Z,100.00
2023-11-12T14:39:19.772Z,100.00
2023-11-12T14:44:22.597Z,100.00
2023-11-12T14:49:27.451Z,100.00
2023-11-12T14:54:30.722Z,100.00
2023-11-12T14:59:39.675Z,100.00
2023-11-12T15:04:42.412Z,100.00
2023-11-12T15:09:45.471Z,100.00
2023-11-12T15:14:48.691Z,100.00
2023-11-12T15:19:51.019Z,100.00
2023-11-12T15:24:54.025Z,100.00
2023-11-12T15:29:57.068Z,100.00
2023-11-12T15:34:59.669Z,100.00
2023-11-12T15:40:02.849Z,100.00
2023-11-12T15:45:07.408Z,100.00
2023-11-12T15:50:14.008Z,100.00
2023-11-12T15:55:17.242Z,100.00
2023-11-12T16:00:20.881Z,100.00
2023-11-12T16:05:23.284Z,100.00
2023-11-12T16:10:25.471Z,100.00
2023-11-12T16:15:31.116Z,100.00
2023-11-12T16:20:33.775Z,100.00
2023-11-12T16:25:36.070Z,100.00
2023-11-12T16:30:39.191Z,100.00
2023-11-12T16:35:41.886Z,100.00
2023-11-12T16:40:45.903Z,100.00
2023-11-12T16:45:48.309Z,100.00
2023-11-12T16:50:50.971Z,100.00
2023-11-12T16:55:55.529Z,100.00
2023-11-12T17:00:58.933Z,100.00
2023-11-12T17:06:01.554Z,100.00
2023-11-12T17:11:07.030Z,100.00
2023-11-12T17:16:09.894Z,100.00
2023-11-12T17:21:12.225Z,100.00
2023-11-12T17:26:15.249Z,100.00
2023-11-12T17:31:18.303Z,100.00
2023-11-12T17:36:20.668Z,100.00
2023-11-12T17:41:24.554Z,100.00
2023-11-12T17:46:27.561Z,100.00
2023-11-12T17:51:29.938Z,100.00
2023-11-12T17:56:32.706Z,100.00
2023-11-12T18:01:35.011Z,100.00
2023-11-12T18:06:39.211Z,100.00
2023-11-12T18:11:41.940Z,100.00
2023-11-12T18:16:48.781Z,100.00
2023-11-12T18:21:51.877Z,100.00
2023-11-12T18:26:56.916Z,100.00
2023-11-12T18:32:05.272Z,100.00
2023-11-12T18:37:10.753Z,100.00
2023-11-12T18:42:13.655Z,100.00
2023-11-12T18:47:15.854Z,100.00
2023-11-12T18:52:18.655Z,100.00
2023-11-12T18:57:21.423Z,100.00
2023-11-12T19:02:25.006Z,100.00
2023-11-12T19:07:28.292Z,100.00
2023-11-12T19:12:30.700Z,100.00
2023-11-12T19:17:33.593Z,100.00
2023-11-12T19:22:36.424Z,100.00
2023-11-12T19:27:41.424Z,100.00
2023-11-12T19:32:44.574Z,100.00
2023-11-12T19:37:47.870Z,100.00
2023-11-12T19:42:50.882Z,100.00
2023-11-12T19:47:55.566Z,100.00
2023-11-12T19:52:58.568Z,100.00
2023-11-12T19:58:02.150Z,100.00
2023-11-12T20:03:04.867Z,100.00
2023-11-12T20:08:07.656Z,100.00
2023-11-12T20:13:10.667Z,100.00
2023-11-12T20:18:13.043Z,100.00
2023-11-12T20:23:15.298Z,100.00
2023-11-12T20:28:17.675Z,100.00
2023-11-12T20:33:21.938Z,100.00
2023-11-12T20:38:25.651Z,100.00
2023-11-12T20:43:28.689Z,100.00
2023-11-12T20:48:31.497Z,100.00
2023-11-12T20:53:34.238Z,100.00
2023-11-12T20:58:37.210Z,100.00
2023-11-12T21:03:40.166Z,100.00
2023-11-12T21:08:42.903Z,100.00
2023-11-12T21:13:48.271Z,100.00
2023-11-12T21:18:52.419Z,100.00
2023-11-12T21:23:55.122Z,100.00
2023-11-12T21:28:58.983Z,100.00
2023-11-12T21:34:02.335Z,100.00
2023-11-12T21:39:10.395Z,100.00
2023-11-12T21:44:14.624Z,100.00
2023-11-12T21:49:17.349Z,100.00
2023-11-12T21:54:21.983Z,100.00
2023-11-12T21:59:24.765Z,100.00
2023-11-12T22:04:27.097Z,100.00
2023-11-12T22:09:29.361Z,100.00
2023-11-12T22:14:31.993Z,100.00
2023-11-12T22:19:34.774Z,100.00
2023-11-12T22:24:37.049Z,100.00
2023-11-12T22:29:39.233Z,100.00
2023-11-12T22:34:41.822Z,100.00
2023-11-12T22:39:44.822Z,100.00
2023-11-12T22:44:47.128Z,100.00
2023-11-12T22:49:50.157Z,100.00
2023-11-12T22:54:52.911Z,100.00
2023-11-12T22:59:55.635Z,100.00
2023-11-12T23:04:57.836Z,100.00
2023-11-12T23:10:08.504Z,100.00
2023-11-12T23:15:12.859Z,100.00
2023-11-12T23:20:15.681Z,100.00
2023-11-12T23:25:22.016Z,100.00
2023-11-12T23:30:25.089Z,100.00
2023-11-12T23:35:29.100Z,100.00
2023-11-12T23:40:32.242Z,100.00
2023-11-12T23:45:34.888Z,100.00
2023-11-12T23:50:56.465Z,100.00
2023-11-12T23:55:58.845Z,100.00
